Amory, Mississippi
Current Conditions -  °F | °C
As of 2:15 PM on Monday 24 Nov 2014 (Local Time) from KM40 Reporting Station
Clear Clear  
Wind Chill: 18°   Ceiling: Unl
Heat Index: 18°   Visibility: 9mi
Dew Point:   Wind: 8mph
Humidity: 56%   Direction: 260°W
Pressure: 29.9"   Gusts: NA
Location:  33.99°N, 88.49°W
Report Text: KM40 242015Z AUTO 26007KT 9SM CLR 18/09 A2990 RMK AO2
Loading
Personal Weather Stations






























Interactive Weather Map New forecast layout! Learn more

10-Day Weather Forecast

Advertisements
Track Severe Weather on mobile